createdAt,value
2023-04-04T00:00:36.314Z,-0.65
2023-04-04T00:01:36.304Z,-0.65
2023-04-04T00:02:36.393Z,-0.68
2023-04-04T00:03:36.407Z,-0.68
2023-04-04T00:04:36.369Z,-0.69
2023-04-04T00:05:36.412Z,-0.69
2023-04-04T00:06:36.239Z,-0.70
2023-04-04T00:07:36.283Z,-0.68
2023-04-04T00:08:36.233Z,-0.66
2023-04-04T00:09:36.242Z,-0.68
2023-04-04T00:10:36.225Z,-0.68
2023-04-04T00:11:36.201Z,-0.66
2023-04-04T00:12:36.189Z,-0.62
2023-04-04T00:13:36.268Z,-0.66
2023-04-04T00:14:36.176Z,-0.65
2023-04-04T00:15:36.169Z,-0.65
2023-04-04T00:16:36.202Z,-0.66
2023-04-04T00:17:36.184Z,-0.70
2023-04-04T00:18:36.132Z,-0.72
2023-04-04T00:19:36.141Z,-0.75
2023-04-04T00:20:36.111Z,-0.72
2023-04-04T00:21:36.099Z,-0.69
2023-04-04T00:22:36.101Z,-0.68
2023-04-04T00:23:36.080Z,-0.70
2023-04-04T00:24:36.078Z,-0.70
2023-04-04T00:25:36.065Z,-0.72
2023-04-04T00:26:36.039Z,-0.75
2023-04-04T00:27:36.062Z,-0.78
2023-04-04T00:28:36.032Z,-0.81
2023-04-04T00:29:36.025Z,-0.84
2023-04-04T00:30:36.008Z,-0.86
2023-04-04T00:31:36.035Z,-0.87
2023-04-04T00:32:36.016Z,-0.89
2023-04-04T00:33:36.010Z,-0.94
2023-04-04T00:34:35.963Z,-0.94
2023-04-04T00:35:35.976Z,-0.95
2023-04-04T00:36:35.949Z,-0.99
2023-04-04T00:37:35.978Z,-1.02
2023-04-04T00:38:35.934Z,-1.03
2023-04-04T00:39:35.938Z,-1.09
2023-04-04T00:40:35.914Z,-1.09
2023-04-04T00:41:35.933Z,-1.07
2023-04-04T00:42:35.872Z,-1.09
2023-04-04T00:43:35.885Z,-1.07
2023-04-04T00:44:35.884Z,-1.10
2023-04-04T00:45:35.895Z,-1.12
2023-04-04T00:46:35.903Z,-1.13
2023-04-04T00:47:35.878Z,-1.13
2023-04-04T00:48:35.851Z,-1.13
2023-04-04T00:49:35.827Z,-1.09
2023-04-04T00:50:35.815Z,-1.02
2023-04-04T00:51:35.815Z,-0.83
2023-04-04T00:52:35.847Z,-0.60
2023-04-04T00:53:42.319Z,-0.47
2023-04-04T00:54:35.979Z,-0.39
2023-04-04T00:55:35.810Z,-0.30
2023-04-04T00:56:35.743Z,-0.27
2023-04-04T00:57:35.751Z,-0.29
2023-04-04T00:58:35.725Z,-0.29
2023-04-04T00:59:35.730Z,-0.24
2023-04-04T01:00:35.708Z,-0.16
2023-04-04T01:01:35.850Z,-0.11
2023-04-04T01:02:35.717Z,-0.16
2023-04-04T01:03:35.688Z,-0.18
2023-04-04T01:04:35.790Z,-0.16
2023-04-04T01:05:35.688Z,-0.19
2023-04-04T01:06:35.641Z,-0.22
2023-04-04T01:07:37.135Z,-0.22
2023-04-04T01:08:35.621Z,-0.23
2023-04-04T01:09:35.615Z,-0.26
2023-04-04T01:10:35.647Z,-0.19
2023-04-04T01:11:35.607Z,-0.12
2023-04-04T01:12:35.611Z,-0.06
2023-04-04T01:13:35.650Z,-0.01
2023-04-04T01:14:35.558Z,-0.04
2023-04-04T01:15:35.563Z,0.00
2023-04-04T01:16:35.590Z,-0.05
2023-04-04T01:17:35.577Z,-0.09
2023-04-04T01:18:35.547Z,-0.13
2023-04-04T01:19:35.521Z,-0.22
2023-04-04T01:20:35.500Z,-0.24
2023-04-04T01:21:35.504Z,-0.29
2023-04-04T01:22:35.445Z,-0.33
2023-04-04T01:23:35.477Z,-0.39
2023-04-04T01:24:35.456Z,-0.42
2023-04-04T01:25:35.475Z,-0.47
2023-04-04T01:26:35.460Z,-0.52
2023-04-04T01:27:35.440Z,-0.52
2023-04-04T01:28:35.414Z,-0.57
2023-04-04T01:29:35.454Z,-0.62
2023-04-04T01:30:35.444Z,-0.66
2023-04-04T01:31:35.401Z,-0.72
2023-04-04T01:32:35.425Z,-0.73
2023-04-04T01:33:35.378Z,-0.78
2023-04-04T01:34:35.355Z,-0.83
2023-04-04T01:35:35.386Z,-0.86
2023-04-04T01:36:35.335Z,-0.91
2023-04-04T01:37:35.341Z,-0.94
2023-04-04T01:38:35.347Z,-0.97
2023-04-04T01:39:35.335Z,-0.95
2023-04-04T01:40:35.290Z,-0.94
2023-04-04T01:41:35.324Z,-0.94
2023-04-04T01:42:35.290Z,-0.99
2023-04-04T01:43:35.299Z,-0.99
2023-04-04T01:44:35.262Z,-1.00
2023-04-04T01:45:35.252Z,-0.94
2023-04-04T01:46:35.270Z,-0.95
2023-04-04T01:47:35.271Z,-0.97
2023-04-04T01:48:35.249Z,-1.02
2023-04-04T01:49:35.226Z,-1.03
2023-04-04T01:50:35.200Z,-1.00
2023-04-04T01:51:35.209Z,-0.97
2023-04-04T01:52:35.176Z,-0.97
2023-04-04T01:53:35.177Z,-1.03
2023-04-04T01:54:35.188Z,-1.05
2023-04-04T01:55:35.160Z,-1.06
2023-04-04T01:56:35.146Z,-1.09
2023-04-04T01:57:35.127Z,-1.12
2023-04-04T01:58:35.142Z,-1.17
2023-04-04T01:59:35.113Z,-1.18
2023-04-04T02:00:35.093Z,-1.18
2023-04-04T02:01:35.124Z,-1.21
2023-04-04T02:02:35.180Z,-1.23
2023-04-04T02:03:35.098Z,-1.24
2023-04-04T02:04:35.060Z,-1.24
2023-04-04T02:05:35.061Z,-1.23
2023-04-04T02:06:35.040Z,-1.25
2023-04-04T02:07:35.044Z,-1.27
2023-04-04T02:08:35.030Z,-1.31
2023-04-04T02:09:35.029Z,-1.33
2023-04-04T02:10:35.025Z,-1.33
2023-04-04T02:11:35.016Z,-1.36
2023-04-04T02:12:34.978Z,-1.36
2023-04-04T02:13:34.973Z,-1.36
2023-04-04T02:14:35.009Z,-1.39
2023-04-04T02:15:34.969Z,-1.39
2023-04-04T02:16:34.950Z,-1.41
2023-04-04T02:17:34.968Z,-1.43
2023-04-04T02:18:34.920Z,-1.45
2023-04-04T02:19:34.964Z,-1.46
2023-04-04T02:20:34.950Z,-1.46
2023-04-04T02:21:34.893Z,-1.46
2023-04-04T02:22:34.876Z,-1.48
2023-04-04T02:23:34.886Z,-1.46
2023-04-04T02:24:34.863Z,-1.49
2023-04-04T02:25:34.880Z,-1.51
2023-04-04T02:26:34.867Z,-1.54
2023-04-04T02:27:34.839Z,-1.54
2023-04-04T02:28:34.817Z,-1.53
2023-04-04T02:29:34.816Z,-1.54
2023-04-04T02:30:34.819Z,-1.54
2023-04-04T02:31:35.309Z,-1.59
2023-04-04T02:32:34.789Z,-1.57
2023-04-04T02:33:34.782Z,-1.57
2023-04-04T02:34:34.771Z,-1.54
2023-04-04T02:35:34.806Z,-1.53
2023-04-04T02:36:34.751Z,-1.56
2023-04-04T02:37:34.763Z,-1.59
2023-04-04T02:38:34.747Z,-1.56
2023-04-04T02:39:34.725Z,-1.57
2023-04-04T02:40:34.722Z,-1.56
2023-04-04T02:41:34.701Z,-1.56
2023-04-04T02:42:34.681Z,-1.56
2023-04-04T02:43:34.671Z,-1.59
2023-04-04T02:44:34.654Z,-1.56
2023-04-04T02:45:34.682Z,-1.57
2023-04-04T02:46:34.694Z,-1.59
2023-04-04T02:47:34.662Z,-1.56
2023-04-04T02:48:34.630Z,-1.57
2023-04-04T02:49:34.618Z,-1.53
2023-04-04T02:50:34.601Z,-1.56
2023-04-04T02:51:34.630Z,-1.54
2023-04-04T02:52:34.591Z,-1.56
2023-04-04T02:53:34.568Z,-1.56
2023-04-04T02:54:34.571Z,-1.53
2023-04-04T02:55:34.566Z,-1.57
2023-04-04T02:56:34.527Z,-1.56
2023-04-04T02:57:34.571Z,-1.59
2023-04-04T02:58:34.521Z,-1.57
2023-04-04T02:59:34.516Z,-1.53
2023-04-04T03:00:34.504Z,-1.56
2023-04-04T03:01:34.603Z,-1.57
2023-04-04T03:02:34.797Z,-1.59
2023-04-04T03:03:34.655Z,-1.60
2023-04-04T03:04:34.490Z,-1.63
2023-04-04T03:05:34.467Z,-1.63
2023-04-04T03:06:34.445Z,-1.67
2023-04-04T03:07:34.454Z,-1.67
2023-04-04T03:08:34.441Z,-1.70
2023-04-04T03:09:34.424Z,-1.74
2023-04-04T03:10:34.428Z,-1.74
2023-04-04T03:11:34.403Z,-1.72
2023-04-04T03:12:34.374Z,-1.77
2023-04-04T03:13:34.390Z,-1.80
2023-04-04T03:14:34.365Z,-1.80
2023-04-04T03:15:34.390Z,-1.82
2023-04-04T03:16:34.371Z,-1.81
2023-04-04T03:17:34.367Z,-1.84
2023-04-04T03:18:34.324Z,-1.84
2023-04-04T03:19:40.930Z,-1.84
2023-04-04T03:20:34.301Z,-1.85
2023-04-04T03:21:34.305Z,-1.85
2023-04-04T03:22:34.283Z,-1.84
2023-04-04T03:23:34.271Z,-1.82
2023-04-04T03:24:34.270Z,-1.84
2023-04-04T03:25:34.282Z,-1.78
2023-04-04T03:26:34.228Z,-1.75
2023-04-04T03:27:34.234Z,-1.70
2023-04-04T03:28:34.222Z,-1.69
2023-04-04T03:29:34.205Z,-1.66
2023-04-04T03:30:34.230Z,-1.60
2023-04-04T03:31:34.329Z,-1.54
2023-04-04T03:32:34.207Z,-1.53
2023-04-04T03:33:34.171Z,-1.49
2023-04-04T03:34:34.173Z,-1.51
2023-04-04T03:35:34.189Z,-1.51
2023-04-04T03:36:34.150Z,-1.51
2023-04-04T03:37:34.133Z,-1.49
2023-04-04T03:38:34.141Z,-1.42
2023-04-04T03:39:34.106Z,-1.41
2023-04-04T03:40:34.109Z,-1.41
2023-04-04T03:41:34.101Z,-1.41
2023-04-04T03:42:34.120Z,-1.38
2023-04-04T03:43:34.091Z,-1.38
2023-04-04T03:44:34.069Z,-1.42
2023-04-04T03:45:34.048Z,-1.43
2023-04-04T03:46:35.459Z,-1.51
2023-04-04T03:47:34.061Z,-1.54
2023-04-04T03:48:34.036Z,-1.56
2023-04-04T03:49:34.011Z,-1.62
2023-04-04T03:50:34.003Z,-1.64
2023-04-04T03:51:34.000Z,-1.69
2023-04-04T03:52:34.009Z,-1.72
2023-04-04T03:53:33.967Z,-1.75
2023-04-04T03:54:33.977Z,-1.77
2023-04-04T03:55:33.959Z,-1.82
2023-04-04T03:56:33.957Z,-1.84
2023-04-04T03:57:33.929Z,-1.87
2023-04-04T03:58:33.919Z,-1.90
2023-04-04T03:59:33.908Z,-1.93
2023-04-04T04:00:33.896Z,-1.95
2023-04-04T04:01:33.901Z,-1.99
2023-04-04T04:02:33.952Z,-2.02
2023-04-04T04:03:34.060Z,-2.03
2023-04-04T04:04:33.895Z,-2.05
2023-04-04T04:05:33.846Z,-2.08
2023-04-04T04:06:33.844Z,-2.08
2023-04-04T04:07:33.837Z,-2.06
2023-04-04T04:08:33.818Z,-2.03
2023-04-04T04:09:33.803Z,-1.99
2023-04-04T04:10:33.825Z,-1.96
2023-04-04T04:11:33.828Z,-1.96
2023-04-04T04:12:33.819Z,-1.99
2023-04-04T04:13:33.804Z,-1.99
2023-04-04T04:14:33.794Z,-2.00
2023-04-04T04:15:33.749Z,-1.96
2023-04-04T04:16:33.795Z,-1.98
2023-04-04T04:17:33.748Z,-2.05
2023-04-04T04:18:33.797Z,-2.06
2023-04-04T04:19:33.715Z,-2.10
2023-04-04T04:20:33.707Z,-2.11
2023-04-04T04:21:33.690Z,-2.13
2023-04-04T04:22:33.703Z,-2.17
2023-04-04T04:23:33.695Z,-2.20
2023-04-04T04:24:33.674Z,-2.20
2023-04-04T04:25:33.651Z,-2.24
2023-04-04T04:26:33.659Z,-2.24
2023-04-04T04:27:33.626Z,-2.23
2023-04-04T04:28:34.525Z,-2.28
2023-04-04T04:29:33.570Z,-2.32
2023-04-04T04:30:33.573Z,-2.33
2023-04-04T04:31:33.586Z,-2.36
2023-04-04T04:32:33.564Z,-2.38
2023-04-04T04:33:40.062Z,-2.40
2023-04-04T04:34:33.530Z,-2.40
2023-04-04T04:35:33.545Z,-2.42
2023-04-04T04:36:33.526Z,-2.42
2023-04-04T04:37:33.485Z,-2.40
2023-04-04T04:38:33.497Z,-2.40
2023-04-04T04:39:33.456Z,-2.39
2023-04-04T04:40:33.459Z,-2.39
2023-04-04T04:41:33.469Z,-2.40
2023-04-04T04:42:33.441Z,-2.42
2023-04-04T04:43:33.405Z,-2.43
2023-04-04T04:44:33.464Z,-2.45
2023-04-04T04:45:33.393Z,-2.45
2023-04-04T04:46:33.462Z,-2.45
2023-04-04T04:47:33.427Z,-2.43
2023-04-04T04:48:33.381Z,-2.43
2023-04-04T04:49:33.372Z,-2.39
2023-04-04T04:50:33.365Z,-2.40
2023-04-04T04:51:33.330Z,-2.39
2023-04-04T04:52:33.356Z,-2.42
2023-04-04T04:53:33.314Z,-2.40
2023-04-04T04:54:33.322Z,-2.42
2023-04-04T04:55:33.329Z,-2.42
2023-04-04T04:56:33.308Z,-2.45
2023-04-04T04:57:33.296Z,-2.45
2023-04-04T04:58:33.279Z,-2.50
2023-04-04T04:59:33.280Z,-2.50
2023-04-04T05:00:33.272Z,-2.51
2023-04-04T05:01:33.370Z,-2.54
2023-04-04T05:02:33.369Z,-2.51
2023-04-04T05:03:33.250Z,-2.39
2023-04-04T05:04:33.223Z,-2.24
2023-04-04T05:05:33.214Z,-2.20
2023-04-04T05:06:33.218Z,-2.20
2023-04-04T05:07:33.181Z,-2.20
2023-04-04T05:08:33.220Z,-2.23
2023-04-04T05:09:33.184Z,-2.24
2023-04-04T05:10:33.173Z,-2.24
2023-04-04T05:11:33.171Z,-2.26
2023-04-04T05:12:33.140Z,-2.29
2023-04-04T05:13:33.140Z,-2.35
2023-04-04T05:14:33.117Z,-2.32
2023-04-04T05:15:33.101Z,-2.29
2023-04-04T05:16:33.126Z,-2.32
2023-04-04T05:17:33.113Z,-2.32
2023-04-04T05:18:33.094Z,-2.33
2023-04-04T05:19:33.082Z,-2.18
2023-04-04T05:20:33.049Z,-2.06
2023-04-04T05:21:33.047Z,-2.08
2023-04-04T05:22:33.038Z,-2.10
2023-04-04T05:23:33.031Z,-2.11
2023-04-04T05:24:33.065Z,-2.13
2023-04-04T05:25:33.010Z,-2.14
2023-04-04T05:26:33.016Z,-2.13
2023-04-04T05:27:32.979Z,-2.14
2023-04-04T05:28:33.020Z,-2.13
2023-04-04T05:29:32.975Z,-2.06
2023-04-04T05:30:32.965Z,-2.03
2023-04-04T05:31:32.955Z,-2.08
2023-04-04T05:32:32.964Z,-2.06
2023-04-04T05:33:32.928Z,-2.08
2023-04-04T05:34:32.925Z,-2.10
2023-04-04T05:35:32.920Z,-2.11
2023-04-04T05:36:33.021Z,-2.11
2023-04-04T05:37:34.383Z,-2.14
2023-04-04T05:38:32.893Z,-2.10
2023-04-04T05:39:32.872Z,-2.08
2023-04-04T05:40:32.865Z,-2.06
2023-04-04T05:41:32.868Z,-2.08
2023-04-04T05:42:32.847Z,-2.08
2023-04-04T05:43:32.810Z,-2.10
2023-04-04T05:44:32.837Z,-2.03
2023-04-04T05:45:32.824Z,-1.96
2023-04-04T05:46:39.409Z,-1.95
2023-04-04T05:47:32.821Z,-1.92
2023-04-04T05:48:32.784Z,-1.95
2023-04-04T05:49:32.752Z,-1.92
2023-04-04T05:50:32.763Z,-1.87
2023-04-04T05:51:32.758Z,-1.88
2023-04-04T05:52:32.750Z,-1.87
2023-04-04T05:53:32.744Z,-1.84
2023-04-04T05:54:32.735Z,-1.85
2023-04-04T05:55:32.734Z,-1.81
2023-04-04T05:56:32.705Z,-1.80
2023-04-04T05:57:32.677Z,-1.80
2023-04-04T05:58:32.712Z,-1.77
2023-04-04T05:59:32.714Z,-1.70
2023-04-04T06:00:32.667Z,-1.63
2023-04-04T06:01:32.644Z,-1.62
2023-04-04T06:02:32.686Z,-1.60
2023-04-04T06:03:32.904Z,-1.59
2023-04-04T06:04:32.622Z,-1.54
2023-04-04T06:05:32.681Z,-1.53
2023-04-04T06:06:32.608Z,-1.53
2023-04-04T06:07:32.577Z,-1.53
2023-04-04T06:08:40.149Z,-1.54
2023-04-04T06:09:32.571Z,-1.53
2023-04-04T06:10:32.561Z,-1.49
2023-04-04T06:11:32.553Z,-1.49
2023-04-04T06:12:32.542Z,-1.53
2023-04-04T06:13:32.594Z,-1.53
2023-04-04T06:14:32.528Z,-1.51
2023-04-04T06:15:32.518Z,-1.49
2023-04-04T06:16:32.606Z,-1.49
2023-04-04T06:17:32.538Z,-1.48
2023-04-04T06:18:32.481Z,-1.48
2023-04-04T06:19:32.473Z,-1.45
2023-04-04T06:20:32.473Z,-1.42
2023-04-04T06:21:32.432Z,-1.39
2023-04-04T06:22:32.454Z,-1.38
2023-04-04T06:23:32.442Z,-1.36
2023-04-04T06:24:32.439Z,-1.31
2023-04-04T06:25:32.411Z,-1.27
2023-04-04T06:26:32.597Z,-1.24
2023-04-04T06:27:32.439Z,-1.17
2023-04-04T06:28:32.652Z,-1.12
2023-04-04T06:29:32.379Z,-1.09
2023-04-04T06:30:32.376Z,-1.03
2023-04-04T06:31:32.367Z,-1.00
2023-04-04T06:32:32.443Z,-0.95
2023-04-04T06:33:32.461Z,-0.87
2023-04-04T06:34:32.334Z,-0.84
2023-04-04T06:35:32.336Z,-0.78
2023-04-04T06:36:32.332Z,-0.69
2023-04-04T06:37:32.284Z,-0.63
2023-04-04T06:38:32.330Z,-0.59
2023-04-04T06:39:32.279Z,-0.48
2023-04-04T06:40:32.260Z,-0.45
2023-04-04T06:41:32.230Z,-0.36
2023-04-04T06:42:32.265Z,-0.26
2023-04-04T06:43:32.226Z,-0.16
2023-04-04T06:44:32.216Z,-0.11
2023-04-04T06:45:32.242Z,-0.04
2023-04-04T06:46:32.239Z,0.07
2023-04-04T06:47:32.240Z,0.16
2023-04-04T06:48:32.169Z,0.30
2023-04-04T06:49:32.150Z,0.51
2023-04-04T06:50:32.180Z,0.70
2023-04-04T06:51:32.141Z,0.94
2023-04-04T06:52:32.156Z,1.07
2023-04-04T06:53:32.133Z,1.08
2023-04-04T06:54:32.135Z,1.14
2023-04-04T06:55:32.120Z,1.25
2023-04-04T06:56:32.179Z,1.40
2023-04-04T06:57:32.091Z,1.43
2023-04-04T06:58:32.087Z,1.52
2023-04-04T06:59:32.208Z,1.55
2023-04-04T07:00:32.120Z,1.60
2023-04-04T07:01:32.145Z,1.61
2023-04-04T07:02:32.136Z,1.68
2023-04-04T07:03:32.035Z,1.79
2023-04-04T07:04:32.095Z,1.80
2023-04-04T07:05:32.053Z,1.83
2023-04-04T07:06:32.207Z,1.85
2023-04-04T07:07:32.217Z,1.83
2023-04-04T07:08:35.908Z,1.83
2023-04-04T07:09:32.020Z,1.85
2023-04-04T07:10:31.966Z,1.93
2023-04-04T07:11:32.093Z,1.94
2023-04-04T07:12:31.991Z,2.01
2023-04-04T07:13:31.971Z,2.13
2023-04-04T07:14:31.936Z,2.19
2023-04-04T07:15:31.906Z,2.26
2023-04-04T07:16:31.996Z,2.34
2023-04-04T07:17:31.899Z,2.35
2023-04-04T07:18:31.896Z,2.41
2023-04-04T07:19:31.964Z,2.49
2023-04-04T07:20:31.884Z,2.49
2023-04-04T07:21:31.831Z,2.53
2023-04-04T07:22:32.612Z,2.59
2023-04-04T07:23:31.843Z,2.67
2023-04-04T07:24:31.821Z,2.64
2023-04-04T07:25:31.801Z,2.66
2023-04-04T07:26:31.912Z,2.64
2023-04-04T07:27:31.926Z,2.73
2023-04-04T07:28:31.792Z,2.85
2023-04-04T07:29:31.755Z,2.92
2023-04-04T07:30:31.764Z,3.05
2023-04-04T07:31:31.798Z,3.12
2023-04-04T07:32:31.906Z,3.20
2023-04-04T07:33:31.750Z,3.30
2023-04-04T07:34:31.737Z,3.33
2023-04-04T07:35:31.723Z,3.40
2023-04-04T07:36:31.700Z,3.44
2023-04-04T07:37:31.683Z,3.50
2023-04-04T07:38:31.770Z,3.50
2023-04-04T07:39:31.673Z,3.58
2023-04-04T07:40:31.659Z,3.54
2023-04-04T07:41:31.651Z,3.54
2023-04-04T07:42:31.634Z,3.57
2023-04-04T07:43:31.629Z,3.62
2023-04-04T07:44:31.614Z,3.67
2023-04-04T07:45:31.612Z,3.71
2023-04-04T07:46:31.651Z,3.76
2023-04-04T07:47:31.604Z,3.80
2023-04-04T07:48:31.585Z,3.80
2023-04-04T07:49:31.565Z,3.83
2023-04-04T07:50:31.554Z,3.83
2023-04-04T07:51:31.540Z,3.88
2023-04-04T07:52:31.524Z,3.89
2023-04-04T07:53:31.569Z,3.96
2023-04-04T07:54:31.517Z,4.03
2023-04-04T07:55:31.707Z,4.07
2023-04-04T07:56:40.517Z,4.10
2023-04-04T07:57:31.477Z,4.15
2023-04-04T07:58:31.502Z,4.18
2023-04-04T07:59:31.747Z,4.16
2023-04-04T08:00:31.472Z,4.19
2023-04-04T08:01:31.508Z,4.19
2023-04-04T08:02:31.511Z,4.24
2023-04-04T08:03:31.506Z,4.25
2023-04-04T08:04:31.461Z,4.32
2023-04-04T08:05:31.402Z,4.36
2023-04-04T08:06:31.390Z,4.43
2023-04-04T08:07:31.393Z,4.47
2023-04-04T08:08:31.411Z,4.55
2023-04-04T08:09:31.445Z,4.67
2023-04-04T08:10:31.382Z,4.72
2023-04-04T08:13:53.366Z,4.86
2023-04-04T08:17:12.231Z,4.94
2023-04-04T08:18:13.115Z,4.95
2023-04-04T08:19:13.101Z,4.99
2023-04-04T08:20:13.087Z,5.10
2023-04-04T08:21:13.035Z,5.14
2023-04-04T08:22:12.972Z,5.23
2023-04-04T08:23:13.140Z,5.25
2023-04-04T08:24:12.970Z,5.28
2023-04-04T08:25:12.946Z,5.32
2023-04-04T08:26:12.914Z,5.32
2023-04-04T08:27:12.921Z,5.35
2023-04-04T08:28:12.924Z,5.32
2023-04-04T08:29:12.961Z,5.31
2023-04-04T08:30:12.896Z,5.34
2023-04-04T08:31:12.904Z,5.37
2023-04-04T08:32:12.872Z,5.37
2023-04-04T08:33:12.904Z,5.41
2023-04-04T08:34:12.865Z,5.48
2023-04-04T08:35:12.892Z,5.55
2023-04-04T08:36:12.809Z,5.55
2023-04-04T08:37:12.841Z,5.55
2023-04-04T08:38:12.798Z,5.49
2023-04-04T08:39:13.301Z,5.49
2023-04-04T08:40:12.985Z,5.48
2023-04-04T08:41:13.090Z,5.49
2023-04-04T08:42:12.761Z,5.52
2023-04-04T08:43:12.732Z,5.50
2023-04-04T08:44:12.763Z,5.52
2023-04-04T08:45:12.764Z,5.55
2023-04-04T08:46:12.805Z,5.59
2023-04-04T08:47:12.757Z,5.60
2023-04-04T08:48:12.709Z,5.60
2023-04-04T08:49:12.696Z,5.60
2023-04-04T08:50:12.803Z,5.63
2023-04-04T08:51:12.868Z,5.70
2023-04-04T08:52:12.712Z,5.68
2023-04-04T08:53:12.683Z,5.75
2023-04-04T08:54:12.662Z,5.82
2023-04-04T08:55:12.712Z,5.85
2023-04-04T08:56:12.896Z,5.85
2023-04-04T08:57:12.630Z,5.81
2023-04-04T08:58:12.622Z,5.75
2023-04-04T08:59:12.719Z,5.71
2023-04-04T09:00:12.693Z,5.73
2023-04-04T09:01:12.663Z,5.75
2023-04-04T09:02:12.641Z,5.82
2023-04-04T09:03:12.611Z,5.88
2023-04-04T09:04:12.611Z,5.91
2023-04-04T09:05:12.618Z,5.98
2023-04-04T09:06:12.562Z,5.98
2023-04-04T09:07:12.513Z,5.92
2023-04-04T09:08:12.605Z,5.91
2023-04-04T09:09:12.513Z,5.95
2023-04-04T09:10:12.538Z,5.89
2023-04-04T09:11:12.475Z,5.75
2023-04-04T09:12:12.472Z,5.71
2023-04-04T09:13:16.000Z,5.75
2023-04-04T09:14:12.460Z,5.75
2023-04-04T09:15:12.455Z,5.78
2023-04-04T09:16:12.460Z,5.78
2023-04-04T09:17:12.413Z,5.78
2023-04-04T09:18:12.445Z,5.85
2023-04-04T09:19:12.409Z,5.86
2023-04-04T09:20:12.400Z,5.81
2023-04-04T09:21:12.402Z,5.81
2023-04-04T09:22:12.380Z,5.88
2023-04-04T09:23:12.348Z,5.96
2023-04-04T09:24:12.400Z,6.07
2023-04-04T09:25:12.391Z,6.19
2023-04-04T09:26:12.357Z,6.29
2023-04-04T09:27:12.309Z,6.33
2023-04-04T09:28:12.307Z,6.36
2023-04-04T09:29:12.326Z,6.38
2023-04-04T09:30:12.297Z,6.35
2023-04-04T09:31:12.282Z,6.38
2023-04-04T09:32:12.372Z,6.25
2023-04-04T09:33:12.255Z,6.11
2023-04-04T09:34:12.267Z,6.13
2023-04-04T09:35:12.218Z,6.22
2023-04-04T09:36:12.353Z,6.29
2023-04-04T09:37:12.217Z,6.36
2023-04-04T09:38:12.228Z,6.35
2023-04-04T09:39:12.183Z,6.09
2023-04-04T09:40:12.218Z,5.77
2023-04-04T09:41:12.179Z,5.85
2023-04-04T09:42:12.180Z,5.92
2023-04-04T09:43:12.160Z,5.96
2023-04-04T09:44:12.162Z,5.98
2023-04-04T09:45:16.948Z,6.07
2023-04-04T09:46:12.195Z,6.06
2023-04-04T09:47:15.624Z,6.03
2023-04-04T09:48:12.151Z,5.98
2023-04-04T09:49:13.433Z,6.00
2023-04-04T09:50:12.115Z,6.07
2023-04-04T09:51:12.063Z,6.25
2023-04-04T09:52:12.089Z,6.36
2023-04-04T09:53:12.075Z,6.46
2023-04-04T09:54:18.646Z,6.56
2023-04-04T09:55:12.033Z,6.59
2023-04-04T09:56:12.037Z,6.65
2023-04-04T09:57:12.029Z,6.72
2023-04-04T09:58:12.001Z,6.80
2023-04-04T09:59:12.013Z,6.87
2023-04-04T10:00:11.994Z,6.91
2023-04-04T10:01:12.010Z,7.01
2023-04-04T10:02:11.960Z,7.04
2023-04-04T10:03:11.960Z,7.12
2023-04-04T10:04:11.977Z,7.07
2023-04-04T10:05:11.928Z,7.01
2023-04-04T10:06:11.949Z,6.80
2023-04-04T10:07:12.156Z,6.73
2023-04-04T10:08:11.900Z,6.72
2023-04-04T10:09:11.902Z,6.69
2023-04-04T10:10:11.871Z,6.62
2023-04-04T10:11:12.727Z,6.61
2023-04-04T10:12:11.888Z,6.63
2023-04-04T10:13:11.854Z,6.69
2023-04-04T10:14:11.848Z,6.79
2023-04-04T10:15:11.828Z,6.87
2023-04-04T10:16:12.305Z,6.94
2023-04-04T10:17:11.810Z,6.91
2023-04-04T10:18:11.810Z,6.83
2023-04-04T10:19:11.792Z,6.73
2023-04-04T10:20:11.774Z,6.72
2023-04-04T10:21:15.863Z,6.63
2023-04-04T10:22:11.759Z,6.65
2023-04-04T10:23:11.738Z,6.76
2023-04-04T10:24:11.764Z,6.84
2023-04-04T10:25:11.725Z,6.97
2023-04-04T10:26:11.747Z,7.09
2023-04-04T10:27:11.705Z,7.23
2023-04-04T10:28:11.707Z,7.34
2023-04-04T10:29:11.880Z,7.44
2023-04-04T10:30:11.761Z,7.58
2023-04-04T10:31:11.746Z,7.66
2023-04-04T10:32:11.754Z,7.77
2023-04-04T10:33:11.681Z,7.87
2023-04-04T10:34:11.637Z,7.92
2023-04-04T10:35:11.620Z,7.97
2023-04-04T10:36:11.667Z,8.04
2023-04-04T10:37:13.077Z,8.14
2023-04-04T10:38:11.629Z,8.18
2023-04-04T10:39:11.588Z,8.11
2023-04-04T10:40:11.603Z,7.85
2023-04-04T10:41:11.628Z,7.66
2023-04-04T10:42:11.566Z,7.56
2023-04-04T10:43:11.569Z,7.42
2023-04-04T10:44:11.570Z,7.42
2023-04-04T10:45:20.556Z,7.38
2023-04-04T10:46:11.718Z,7.34
2023-04-04T10:49:08.183Z,7.32
2023-04-04T10:50:09.214Z,7.27
2023-04-04T10:51:09.144Z,7.20
2023-04-04T10:52:09.137Z,7.05
2023-04-04T10:53:09.135Z,7.04
2023-04-04T10:54:09.110Z,7.16
2023-04-04T10:55:09.108Z,7.27
2023-04-04T10:56:09.119Z,7.32
2023-04-04T10:57:09.083Z,7.41
2023-04-04T10:58:09.090Z,7.50
2023-04-04T10:59:09.078Z,7.45
2023-04-04T11:00:09.068Z,7.41
2023-04-04T11:01:09.054Z,7.20
2023-04-04T11:02:09.043Z,7.12
2023-04-04T11:03:09.135Z,7.13
2023-04-04T11:04:09.081Z,7.19
2023-04-04T11:05:09.033Z,7.32
2023-04-04T11:06:08.992Z,7.40
2023-04-04T11:07:09.006Z,7.56
2023-04-04T11:08:09.656Z,7.63
2023-04-04T11:09:08.944Z,7.66
2023-04-04T11:10:08.966Z,7.37
2023-04-04T11:11:21.869Z,7.23
2023-04-04T11:12:08.936Z,7.16
2023-04-04T11:13:13.167Z,7.26
2023-04-04T11:14:10.844Z,7.42
2023-04-04T11:15:08.946Z,7.60
2023-04-04T11:16:08.970Z,7.75
2023-04-04T11:17:09.016Z,7.93
2023-04-04T11:18:22.271Z,7.96
2023-04-04T11:19:09.007Z,7.90
2023-04-04T11:20:08.970Z,7.87
2023-04-04T11:21:09.063Z,7.87
2023-04-04T11:22:08.895Z,7.77
2023-04-04T11:23:08.930Z,7.75
2023-04-04T11:24:08.825Z,7.67
2023-04-04T11:25:08.916Z,7.59
2023-04-04T11:26:08.805Z,7.67
2023-04-04T11:27:08.827Z,7.71
2023-04-04T11:28:08.834Z,7.78
2023-04-04T11:29:08.973Z,7.84
2023-04-04T11:30:08.728Z,7.79
2023-04-04T11:31:08.776Z,7.81
2023-04-04T11:32:08.781Z,7.89
2023-04-04T11:33:08.845Z,7.84
2023-04-04T11:34:08.762Z,7.82
2023-04-04T11:35:08.738Z,7.92
2023-04-04T11:36:08.971Z,7.92
2023-04-04T11:37:08.898Z,7.97
2023-04-04T11:38:08.774Z,7.81
2023-04-04T11:39:08.710Z,7.71
2023-04-04T11:40:08.696Z,7.75
2023-04-04T11:41:08.658Z,7.79
2023-04-04T11:42:08.632Z,7.84
2023-04-04T11:43:08.617Z,7.87
2023-04-04T11:44:09.406Z,7.94
2023-04-04T11:45:08.648Z,8.00
2023-04-04T11:46:08.649Z,8.17
2023-04-04T11:47:08.592Z,8.12
2023-04-04T11:48:08.580Z,7.93
2023-04-04T11:49:08.521Z,7.92
2023-04-04T11:50:08.592Z,7.87
2023-04-04T11:51:08.539Z,7.74
2023-04-04T11:52:08.501Z,7.78
2023-04-04T11:53:08.475Z,7.85
2023-04-04T11:54:08.507Z,8.02
2023-04-04T11:55:08.518Z,8.15
2023-04-04T11:56:08.461Z,8.32
2023-04-04T11:57:08.481Z,8.29
2023-04-04T11:58:10.616Z,8.20
2023-04-04T11:59:11.823Z,8.08
2023-04-04T12:00:08.522Z,7.87
2023-04-04T12:01:08.411Z,7.74
2023-04-04T12:02:08.466Z,7.84
2023-04-04T12:03:08.461Z,7.96
2023-04-04T12:04:08.367Z,7.94
2023-04-04T12:05:08.458Z,7.97
2023-04-04T12:06:08.438Z,7.97
2023-04-04T12:07:08.330Z,8.14
2023-04-04T12:08:08.360Z,8.02
2023-04-04T12:09:08.323Z,8.02
2023-04-04T12:10:08.310Z,7.99
2023-04-04T12:11:08.309Z,7.82
2023-04-04T12:12:08.442Z,7.66
2023-04-04T12:13:08.293Z,7.74
2023-04-04T12:14:08.256Z,7.82
2023-04-04T12:15:17.824Z,7.84
2023-04-04T12:16:08.313Z,7.93
2023-04-04T12:17:08.253Z,8.00
2023-04-04T12:18:08.290Z,8.07
2023-04-04T12:19:08.272Z,8.22
2023-04-04T12:20:08.186Z,8.18
2023-04-04T12:21:08.180Z,8.26
2023-04-04T12:22:08.397Z,8.36
2023-04-04T12:23:08.149Z,8.40
2023-04-04T12:24:08.156Z,8.37
2023-04-04T12:25:08.162Z,8.29
2023-04-04T12:26:08.106Z,8.33
2023-04-04T12:27:08.184Z,8.26
2023-04-04T12:28:08.130Z,8.07
2023-04-04T12:29:08.089Z,8.07
2023-04-04T12:30:08.093Z,8.10
2023-04-04T12:31:08.160Z,8.21
2023-04-04T12:32:08.151Z,8.25
2023-04-04T12:33:08.081Z,8.28
2023-04-04T12:34:08.041Z,8.21
2023-04-04T12:35:08.044Z,8.30
2023-04-04T12:36:08.608Z,8.10
2023-04-04T12:37:08.014Z,8.07
2023-04-04T12:38:08.033Z,8.10
2023-04-04T12:39:07.995Z,8.21
2023-04-04T12:40:07.996Z,8.30
2023-04-04T12:41:07.980Z,8.39
2023-04-04T12:42:07.959Z,8.48
2023-04-04T12:43:07.989Z,8.63
2023-04-04T12:44:07.985Z,8.75
2023-04-04T12:45:07.977Z,8.72
2023-04-04T12:46:07.920Z,8.48
2023-04-04T12:47:07.976Z,8.33
2023-04-04T12:48:07.975Z,8.18
2023-04-04T12:49:07.882Z,8.18
2023-04-04T12:50:07.907Z,8.25
2023-04-04T12:51:07.851Z,8.29
2023-04-04T12:52:07.854Z,8.30
2023-04-04T12:53:23.983Z,8.32
2023-04-04T12:54:07.845Z,8.21
2023-04-04T12:55:08.667Z,8.28
2023-04-04T12:56:07.826Z,8.39
2023-04-04T12:57:07.808Z,8.37
2023-04-04T12:58:07.777Z,8.42
2023-04-04T12:59:07.819Z,8.47
2023-04-04T13:00:07.789Z,8.62
2023-04-04T13:01:07.803Z,8.78
2023-04-04T13:02:07.739Z,8.76
2023-04-04T13:03:07.740Z,8.72
2023-04-04T13:04:07.770Z,8.73
2023-04-04T13:05:08.063Z,8.73
2023-04-04T13:06:07.727Z,8.71
2023-04-04T13:07:07.744Z,8.72
2023-04-04T13:08:07.887Z,8.72
2023-04-04T13:09:07.672Z,8.62
2023-04-04T13:10:07.673Z,8.58
2023-04-04T13:11:07.633Z,8.51